Time;durP1;ratioP1;P1;durP2;ratioP2;P2;SDS_P1;SDS_P2;PMS_P1;PMS_P2;Temp;Humidity;BMP_temperature;BMP_pressure;BME280_temperature;BME280_humidity;BME280_pressure;Samples;Min_cycle;Max_cycle;Signal;HPM_P1;HPM_P2
2021/04/19 00:01:59;;;;;;;8.73;5.60;;;7.70;99.90;;;;;;5071032;28;20234;-78
2021/04/19 00:04:44;;;;;;;8.20;4.87;;;7.70;99.90;;;;;;5068863;28;20260;-77
2021/04/19 00:07:28;;;;;;;14.20;5.03;;;7.60;99.90;;;;;;5066340;28;20643;-77
2021/04/19 00:10:15;;;;;;;8.27;4.77;;;7.50;99.90;;;;;;5066409;28;20253;-78
2021/04/19 00:13:01;;;;;;;11.80;5.23;;;7.50;99.90;;;;;;5071920;28;20209;-77
2021/04/19 00:15:46;;;;;;;11.27;5.67;;;7.40;99.90;;;;;;5072982;28;20276;-78
2021/04/19 00:18:31;;;;;;;9.70;5.20;;;7.40;99.90;;;;;;5075535;28;20233;-78
2021/04/19 00:21:16;;;;;;;10.50;6.00;;;7.30;99.90;;;;;;5065331;28;20210;-79
2021/04/19 00:24:01;;;;;;;10.27;5.57;;;7.20;99.90;;;;;;5074814;28;20210;-79
2021/04/19 00:26:46;;;;;;;10.43;5.23;;;7.20;99.90;;;;;;5075874;28;20202;-79
2021/04/19 00:29:31;;;;;;;11.53;5.53;;;7.10;99.90;;;;;;5077681;28;20271;-79
2021/04/19 00:32:16;;;;;;;10.73;5.27;;;7.10;99.90;;;;;;5076071;28;20654;-79
2021/04/19 00:35:01;;;;;;;8.97;5.30;;;7.10;99.90;;;;;;5074238;28;20222;-78
2021/04/19 00:37:47;;;;;;;9.03;4.87;;;7.00;99.90;;;;;;5064134;28;20242;-79
2021/04/19 00:40:33;;;;;;;10.67;5.97;;;7.00;99.90;;;;;;5073694;28;20209;-79
2021/04/19 00:43:18;;;;;;;8.87;5.47;;;6.90;99.90;;;;;;5078701;28;20622;-79
2021/04/19 00:46:05;;;;;;;9.97;5.40;;;6.90;99.90;;;;;;5081682;28;20272;-79
2021/04/19 00:48:50;;;;;;;16.17;5.97;;;6.80;99.90;;;;;;5077177;28;20703;-78
2021/04/19 00:51:35;;;;;;;14.07;6.20;;;6.80;99.90;;;;;;5073330;28;20206;-78
2021/04/19 00:54:20;;;;;;;10.80;6.00;;;6.70;99.90;;;;;;5059790;28;20699;-78
2021/04/19 00:57:06;;;;;;;11.37;6.07;;;6.70;99.90;;;;;;5081318;28;20196;-79
2021/04/19 00:59:50;;;;;;;11.77;6.40;;;6.60;99.90;;;;;;5077307;28;20234;-78
2021/04/19 01:02:36;;;;;;;12.60;6.10;;;6.60;99.90;;;;;;5079118;28;20760;-79
2021/04/19 01:05:24;;;;;;;11.33;5.97;;;6.60;99.90;;;;;;5062098;28;20285;-78
2021/04/19 01:08:10;;;;;;;12.97;6.60;;;6.50;99.90;;;;;;5073018;28;20598;-79
2021/04/19 01:10:55;;;;;;;13.70;6.37;;;6.40;99.90;;;;;;5072729;28;20240;-78
2021/04/19 01:13:39;;;;;;;12.27;6.33;;;6.40;99.90;;;;;;5069177;28;20206;-78
2021/04/19 01:16:24;;;;;;;12.63;6.50;;;6.30;99.90;;;;;;5059704;28;20222;-79
2021/04/19 01:19:10;;;;;;;11.53;6.13;;;6.30;99.90;;;;;;5077232;28;20230;-78
2021/04/19 01:21:55;;;;;;;12.50;6.47;;;6.30;99.90;;;;;;5074092;28;20299;-78
2021/04/19 01:24:40;;;;;;;13.17;7.00;;;6.20;99.90;;;;;;5071808;28;20201;-78
2021/04/19 01:27:24;;;;;;;12.13;6.97;;;6.20;99.90;;;;;;5075216;28;20212;-78
2021/04/19 01:30:10;;;;;;;14.13;7.20;;;6.20;99.90;;;;;;5057441;28;20617;-78
2021/04/19 01:32:55;;;;;;;16.63;7.30;;;6.10;99.90;;;;;;5062849;28;20214;-78
2021/04/19 01:35:41;;;;;;;11.13;6.53;;;6.10;99.90;;;;;;5070215;28;20264;-78
2021/04/19 01:38:27;;;;;;;14.53;6.80;;;6.00;99.90;;;;;;5075040;28;20265;-78
2021/04/19 01:41:11;;;;;;;12.77;6.93;;;6.00;99.90;;;;;;5068383;28;20723;-78
2021/04/19 01:43:57;;;;;;;14.33;7.70;;;6.00;99.90;;;;;;5080507;28;20209;-78
2021/04/19 01:46:42;;;;;;;15.93;7.90;;;6.00;99.90;;;;;;5061964;28;20198;-78
2021/04/19 01:49:30;;;;;;;17.07;7.50;;;5.90;99.90;;;;;;5074194;28;20315;-78
2021/04/19 01:52:15;;;;;;;13.23;7.50;;;5.90;99.90;;;;;;5069442;28;20244;-78
2021/04/19 01:55:00;;;;;;;14.67;6.90;;;5.90;99.90;;;;;;5063556;28;20583;-78
2021/04/19 01:57:48;;;;;;;16.50;7.63;;;5.80;99.90;;;;;;5063711;28;20205;-79
2021/04/19 02:00:38;;;;;;;13.13;7.70;;;5.80;99.90;;;;;;5062291;28;20268;-78
2021/04/19 02:03:49;;;;;;;16.00;7.83;;;5.80;99.90;;;;;;5068778;28;20198;-78
2021/04/19 02:06:37;;;;;;;15.73;8.20;;;5.70;99.90;;;;;;5054908;28;20206;-78
2021/04/19 02:09:28;;;;;;;15.40;8.60;;;5.70;99.90;;;;;;5081365;28;20226;-78
2021/04/19 02:12:21;;;;;;;14.03;8.13;;;5.70;99.90;;;;;;5059696;28;20226;-78
2021/04/19 02:15:09;;;;;;;14.53;7.73;;;5.60;99.90;;;;;;5079695;28;20214;-78
2021/04/19 02:18:06;;;;;;;16.07;8.37;;;5.60;99.90;;;;;;5076263;28;20234;-78
2021/04/19 02:20:58;;;;;;;15.97;8.13;;;5.60;99.90;;;;;;5068380;28;20711;-78
2021/04/19 02:23:48;;;;;;;16.63;9.10;;;5.50;99.90;;;;;;5081809;28;20251;-78
2021/04/19 02:26:35;;;;;;;18.93;10.33;;;5.50;99.90;;;;;;5063279;28;20718;-78
2021/04/19 02:29:29;;;;;;;15.33;9.10;;;5.50;99.90;;;;;;5082332;28;20229;-78
2021/04/19 02:32:19;;;;;;;13.47;8.27;;;5.50;99.90;;;;;;5068272;28;20472;-79
2021/04/19 02:35:07;;;;;;;20.13;10.07;;;5.50;99.90;;;;;;5073759;28;20280;-78
2021/04/19 02:37:54;;;;;;;15.60;9.63;;;5.40;99.90;;;;;;5056088;28;20209;-79
2021/04/19 02:40:40;;;;;;;17.00;9.27;;;5.40;99.90;;;;;;5080564;28;20596;-78
2021/04/19 02:43:26;;;;;;;17.37;10.07;;;5.40;99.90;;;;;;5074476;28;20248;-78
2021/04/19 02:46:12;;;;;;;16.37;9.30;;;5.40;99.90;;;;;;5071200;28;20288;-78
2021/04/19 02:48:59;;;;;;;18.67;10.33;;;5.40;99.90;;;;;;5065695;28;20241;-78
2021/04/19 02:51:44;;;;;;;16.13;9.70;;;5.30;99.90;;;;;;5070444;28;20794;-78
2021/04/19 02:54:30;;;;;;;20.83;9.80;;;5.30;99.90;;;;;;5072932;28;20534;-78
2021/04/19 02:57:23;;;;;;;18.40;11.03;;;5.50;99.90;;;;;;5059350;28;20620;-78
2021/04/19 03:00:08;;;;;;;19.77;10.83;;;5.30;99.90;;;;;;5069759;28;20229;-79
2021/04/19 03:02:56;;;;;;;18.07;10.50;;;5.30;99.90;;;;;;5072957;28;20214;-78
2021/04/19 03:05:44;;;;;;;18.63;11.03;;;5.30;99.90;;;;;;5073611;28;20632;-78
2021/04/19 03:08:33;;;;;;;21.57;11.83;;;5.30;99.90;;;;;;5078683;28;20736;-78
2021/04/19 03:11:23;;;;;;;22.10;11.20;;;5.30;99.90;;;;;;5056632;28;20207;-78
2021/04/19 03:14:10;;;;;;;20.03;12.10;;;5.30;99.90;;;;;;5069972;28;21324;-77
2021/04/19 03:17:01;;;;;;;21.73;12.20;;;5.30;99.90;;;;;;5059037;28;20246;-78
2021/04/19 03:19:56;;;;;;;21.20;11.37;;;5.30;99.90;;;;;;5068559;28;20229;-77
2021/04/19 03:22:45;;;;;;;22.97;12.40;;;5.40;99.90;;;;;;5068465;28;20206;-77
2021/04/19 03:25:31;;;;;;;22.47;11.87;;;5.40;99.90;;;;;;5076776;28;20622;-77
2021/04/19 03:28:19;;;;;;;21.07;10.93;;;5.40;99.90;;;;;;5060681;28;20229;-79
2021/04/19 03:31:08;;;;;;;18.87;10.33;;;5.40;99.90;;;;;;5068979;28;20291;-78
2021/04/19 03:33:55;;;;;;;18.10;11.23;;;5.40;99.90;;;;;;5068809;28;20247;-77
2021/04/19 03:36:42;;;;;;;17.90;11.53;;;5.40;99.90;;;;;;5052514;28;20210;-77
2021/04/19 03:39:27;;;;;;;19.23;12.03;;;5.40;99.90;;;;;;5065287;28;20225;-77
2021/04/19 03:42:13;;;;;;;21.80;11.23;;;5.40;99.90;;;;;;5071068;28;20244;-77
2021/04/19 03:45:00;;;;;;;20.67;10.93;;;5.40;99.90;;;;;;5065834;28;20712;-79
2021/04/19 03:47:46;;;;;;;25.80;13.13;;;5.40;99.90;;;;;;5068640;28;20574;-77
2021/04/19 03:50:35;;;;;;;25.00;12.30;;;5.30;99.90;;;;;;5061790;28;20695;-76
2021/04/19 03:53:25;;;;;;;23.30;12.67;;;5.30;99.90;;;;;;5075477;28;20295;-77
2021/04/19 03:56:12;;;;;;;20.77;11.73;;;5.30;99.90;;;;;;5070094;28;20295;-77
2021/04/19 03:59:00;;;;;;;21.07;12.27;;;5.30;99.90;;;;;;5074707;28;20222;-77
2021/04/19 04:01:46;;;;;;;20.63;12.50;;;5.30;99.90;;;;;;5074089;28;20568;-78
2021/04/19 04:04:32;;;;;;;20.50;12.73;;;5.30;99.90;;;;;;5073470;28;20578;-78
2021/04/19 04:07:17;;;;;;;21.10;13.77;;;5.30;99.90;;;;;;5079844;28;20202;-78
2021/04/19 04:10:04;;;;;;;23.40;13.73;;;5.20;99.90;;;;;;5082130;28;20236;-76
2021/04/19 04:12:50;;;;;;;23.27;13.93;;;5.30;99.90;;;;;;5073849;28;20224;-77
2021/04/19 04:15:34;;;;;;;24.87;14.40;;;5.30;99.90;;;;;;5086212;28;20710;-78
2021/04/19 04:18:19;;;;;;;22.33;14.47;;;5.30;99.90;;;;;;5066809;28;20265;-78
2021/04/19 04:21:05;;;;;;;23.80;13.90;;;5.30;99.90;;;;;;5080297;28;20241;-78
2021/04/19 04:23:50;;;;;;;27.07;15.33;;;5.30;99.90;;;;;;5080247;28;20233;-78
2021/04/19 04:26:36;;;;;;;26.33;15.53;;;5.30;99.90;;;;;;5082758;28;20725;-79
2021/04/19 04:29:24;;;;;;;26.00;16.17;;;5.30;99.90;;;;;;5077890;28;20719;-79
2021/04/19 04:32:09;;;;;;;25.73;14.63;;;5.30;99.90;;;;;;5076300;28;20214;-79
2021/04/19 04:34:54;;;;;;;26.87;16.13;;;5.40;99.90;;;;;;5077412;28;20702;-78
2021/04/19 04:37:39;;;;;;;29.00;16.57;;;5.40;99.90;;;;;;5079550;28;20284;-78
2021/04/19 04:40:24;;;;;;;26.80;15.97;;;5.40;99.90;;;;;;5075732;28;20269;-77
2021/04/19 04:43:13;;;;;;;29.70;18.40;;;5.40;99.90;;;;;;5075991;28;20307;-77
2021/04/19 04:46:04;;;;;;;32.07;19.20;;;5.50;99.90;;;;;;5073770;28;20232;-78
2021/04/19 04:48:58;;;;;;;32.03;18.67;;;5.60;99.90;;;;;;5065621;28;20245;-79
2021/04/19 04:51:46;;;;;;;31.57;18.87;;;5.60;99.90;;;;;;5076197;28;20622;-78
2021/04/19 04:54:32;;;;;;;28.57;18.27;;;5.70;99.90;;;;;;5076863;28;20283;-79
2021/04/19 04:57:21;;;;;;;28.87;19.10;;;5.70;99.90;;;;;;5081761;28;20222;-77
2021/04/19 05:00:10;;;;;;;33.10;19.80;;;5.80;99.90;;;;;;5077453;28;20253;-77
2021/04/19 05:02:57;;;;;;;32.90;19.63;;;5.90;99.90;;;;;;5078388;28;20201;-77
2021/04/19 05:05:44;;;;;;;34.73;19.37;;;6.00;99.90;;;;;;5076340;28;20703;-78
2021/04/19 05:08:30;;;;;;;28.33;18.63;;;6.00;99.90;;;;;;5084099;28;20276;-78
2021/04/19 05:11:15;;;;;;;30.30;18.73;;;6.10;99.90;;;;;;5079983;28;20297;-78
2021/04/19 05:14:00;;;;;;;35.50;19.90;;;6.20;99.90;;;;;;5083974;28;20264;-78
2021/04/19 05:16:46;;;;;;;32.73;18.53;;;6.20;99.90;;;;;;5083906;28;20757;-78
2021/04/19 05:19:30;;;;;;;33.57;19.23;;;6.30;99.90;;;;;;5076133;28;20269;-78
2021/04/19 05:22:15;;;;;;;32.40;19.90;;;6.30;99.90;;;;;;5080159;28;20220;-79
2021/04/19 05:25:00;;;;;;;36.53;19.87;;;6.40;99.90;;;;;;5081477;28;20716;-78
2021/04/19 05:27:44;;;;;;;33.47;19.37;;;6.50;99.90;;;;;;5076848;28;20198;-78
2021/04/19 05:30:30;;;;;;;31.23;20.40;;;6.50;99.90;;;;;;5073312;28;20216;-78
2021/04/19 05:33:17;;;;;;;31.03;19.53;;;6.60;99.90;;;;;;5079596;28;20733;-79
2021/04/19 05:36:06;;;;;;;29.20;18.63;;;6.70;99.90;;;;;;5080950;28;20262;-78
2021/04/19 05:38:52;;;;;;;35.33;20.20;;;6.70;99.90;;;;;;5073286;28;20243;-78
2021/04/19 05:41:38;;;;;;;32.60;20.07;;;6.80;99.90;;;;;;5076837;28;20202;-78
2021/04/19 05:44:25;;;;;;;40.03;21.43;;;6.80;99.90;;;;;;5074322;28;20214;-79
2021/04/19 05:47:12;;;;;;;32.70;20.33;;;6.90;99.90;;;;;;5077986;28;20266;-78
2021/04/19 05:49:57;;;;;;;27.93;19.63;;;6.90;99.90;;;;;;5077272;28;20238;-78
2021/04/19 05:52:43;;;;;;;32.13;20.63;;;7.00;99.90;;;;;;5073814;28;20197;-78
2021/04/19 05:55:30;;;;;;;28.90;20.77;;;7.00;99.90;;;;;;5072884;28;20323;-79
2021/04/19 05:58:20;;;;;;;35.20;19.80;;;7.10;99.90;;;;;;5074715;28;20257;-78
2021/04/19 06:01:08;;;;;;;31.53;19.87;;;7.10;99.90;;;;;;5073467;28;20285;-81
2021/04/19 06:03:57;;;;;;;37.00;19.90;;;7.10;99.90;;;;;;5071419;28;20625;-78
2021/04/19 06:07:02;;;;;;;32.87;20.87;;;7.20;99.90;;;;;;5070096;28;20209;-77
2021/04/19 06:09:53;;;;;;;31.57;20.23;;;7.20;99.90;;;;;;5072340;28;20306;-77
2021/04/19 06:12:44;;;;;;;30.87;20.83;;;7.20;99.90;;;;;;5077283;28;20758;-78
2021/04/19 06:15:29;;;;;;;31.47;21.47;;;7.20;99.90;;;;;;5074361;28;20222;-79
2021/04/19 06:18:18;;;;;;;31.63;21.80;;;7.20;99.90;;;;;;5077233;28;20237;-78
2021/04/19 06:21:05;;;;;;;35.83;21.97;;;7.30;99.90;;;;;;5071819;28;20213;-77
2021/04/19 06:23:51;;;;;;;33.17;21.07;;;7.30;99.90;;;;;;5074414;28;20256;-77
2021/04/19 06:26:36;;;;;;;32.93;21.10;;;7.30;99.90;;;;;;5070156;28;20267;-77
2021/04/19 06:29:26;;;;;;;32.20;20.57;;;7.30;99.90;;;;;;5073639;28;20283;-79
2021/04/19 06:32:12;;;;;;;36.67;23.30;;;7.30;99.90;;;;;;5072392;28;20309;-77
2021/04/19 06:34:56;;;;;;;37.80;23.90;;;7.40;99.90;;;;;;5065425;28;20791;-76
2021/04/19 06:37:42;;;;;;;37.93;26.40;;;7.40;99.90;;;;;;5068352;28;20241;-76
2021/04/19 06:40:28;;;;;;;38.37;25.73;;;7.40;99.90;;;;;;5050013;28;20261;-76
2021/04/19 06:43:13;;;;;;;39.57;26.07;;;7.50;99.90;;;;;;5062547;28;20275;-77
2021/04/19 06:45:58;;;;;;;35.27;25.17;;;7.50;99.90;;;;;;5064543;28;20590;-80
2021/04/19 06:48:43;;;;;;;45.57;28.20;;;7.60;99.90;;;;;;5068284;28;20226;-78
2021/04/19 06:51:30;;;;;;;42.97;28.97;;;7.70;99.90;;;;;;5068879;28;20311;-82
2021/04/19 06:54:15;;;;;;;35.97;24.80;;;7.70;99.90;;;;;;5058564;28;20206;-78
2021/04/19 06:57:01;;;;;;;32.83;22.70;;;7.80;99.90;;;;;;5067920;28;20364;-80
2021/04/19 06:59:47;;;;;;;33.73;23.23;;;7.90;99.90;;;;;;5069977;28;20229;-76
2021/04/19 07:02:34;;;;;;;31.83;22.27;;;7.90;99.90;;;;;;5069889;28;20287;-77
2021/04/19 07:05:22;;;;;;;34.53;22.73;;;7.90;99.90;;;;;;5080904;28;20252;-78
2021/04/19 07:08:15;;;;;;;36.13;23.07;;;8.00;99.90;;;;;;5063911;28;20327;-78
2021/04/19 07:11:03;;;;;;;34.63;23.20;;;8.00;99.90;;;;;;5065373;28;20226;-76
2021/04/19 07:13:50;;;;;;;37.17;23.77;;;8.00;99.90;;;;;;5071387;28;20225;-77
2021/04/19 07:16:35;;;;;;;35.73;25.60;;;8.00;99.90;;;;;;5069299;28;20207;-77
2021/04/19 07:19:21;;;;;;;38.03;25.13;;;8.00;99.90;;;;;;5066869;28;20730;-77
2021/04/19 07:22:06;;;;;;;37.33;25.37;;;8.10;99.90;;;;;;5071916;28;20563;-77
2021/04/19 07:24:51;;;;;;;41.73;27.57;;;8.10;99.90;;;;;;5052978;28;20199;-76
2021/04/19 07:27:39;;;;;;;40.93;27.47;;;8.10;99.90;;;;;;5066971;28;20593;-78
2021/04/19 07:30:26;;;;;;;50.77;32.70;;;8.20;99.90;;;;;;5069796;28;20210;-77
2021/04/19 07:33:24;;;;;;;54.27;38.30;;;8.20;99.90;;;;;;5067041;28;20540;-77
2021/04/19 07:36:20;;;;;;;62.93;43.50;;;8.40;99.90;;;;;;5066628;28;20707;-79
2021/04/19 07:39:16;;;;;;;65.10;42.57;;;8.50;99.90;;;;;;5064693;28;20638;-78
2021/04/19 07:42:03;;;;;;;62.50;42.03;;;8.70;99.90;;;;;;5054220;28;20214;-78
2021/04/19 07:44:49;;;;;;;47.70;35.47;;;8.80;99.90;;;;;;5067008;28;20599;-77
2021/04/19 07:47:38;;;;;;;46.20;30.77;;;9.00;99.90;;;;;;5070607;28;20282;-77
2021/04/19 07:50:24;;;;;;;46.93;32.67;;;9.20;99.90;;;;;;5063987;28;20205;-76
2021/04/19 07:53:09;;;;;;;42.13;29.73;;;9.30;99.90;;;;;;5077339;28;20244;-77
2021/04/19 07:55:55;;;;;;;36.10;25.70;;;9.50;99.90;;;;;;5059009;28;20400;-78
2021/04/19 07:58:40;;;;;;;35.50;26.63;;;9.70;99.90;;;;;;5077944;28;20230;-77
2021/04/19 08:01:25;;;;;;;37.70;25.57;;;9.80;99.90;;;;;;5081390;28;20241;-77
2021/04/19 08:04:10;;;;;;;35.00;25.77;;;9.90;99.90;;;;;;5057135;28;20210;-77
2021/04/19 08:06:56;;;;;;;37.90;27.07;;;10.00;99.90;;;;;;5084297;28;20189;-77
2021/04/19 08:09:41;;;;;;;35.00;26.40;;;10.10;99.90;;;;;;5070420;28;20226;-78
2021/04/19 08:12:37;;;;;;;34.67;26.37;;;10.20;99.90;;;;;;5071723;28;20210;-76
2021/04/19 08:15:22;;;;;;;33.03;25.47;;;10.40;99.90;;;;;;5066244;28;20206;-78
2021/04/19 08:18:10;;;;;;;37.03;26.90;;;10.50;99.90;;;;;;5072571;28;20645;-78
2021/04/19 08:20:57;;;;;;;34.40;24.70;;;10.70;99.90;;;;;;5056717;28;20249;-78
2021/04/19 08:23:44;;;;;;;33.43;24.37;;;10.90;99.90;;;;;;5079300;28;20225;-78
2021/04/19 08:26:51;;;;;;;34.43;23.70;;;11.10;99.90;;;;;;5057368;28;20348;-78
2021/04/19 08:29:37;;;;;;;34.97;24.77;;;11.30;99.90;;;;;;5072322;28;20584;-78
2021/04/19 08:32:23;;;;;;;30.87;22.97;;;11.40;99.90;;;;;;5072485;28;20210;-78
2021/04/19 08:35:09;;;;;;;27.80;22.23;;;11.60;99.90;;;;;;5061464;28;20717;-78
2021/04/19 08:37:58;;;;;;;28.13;20.63;;;11.80;99.90;;;;;;5080279;28;20265;-78
2021/04/19 08:40:44;;;;;;;27.33;21.57;;;11.90;99.90;;;;;;5058364;28;20651;-79
2021/04/19 08:43:30;;;;;;;26.43;20.37;;;12.10;99.90;;;;;;5075223;28;20278;-78
2021/04/19 08:46:15;;;;;;;27.60;21.97;;;12.20;99.90;;;;;;5075057;28;20593;-78
2021/04/19 08:49:00;;;;;;;29.37;22.13;;;12.30;99.90;;;;;;5063758;28;20283;-78
2021/04/19 08:51:45;;;;;;;29.50;22.07;;;12.40;99.90;;;;;;5076252;28;20214;-79
2021/04/19 08:54:31;;;;;;;23.67;19.10;;;12.50;99.90;;;;;;5065320;28;20282;-79
2021/04/19 08:57:16;;;;;;;20.30;16.57;;;12.60;99.90;;;;;;5070147;28;20219;-79
2021/04/19 09:00:01;;;;;;;20.50;17.33;;;12.80;99.90;;;;;;5055271;28;20291;-78
2021/04/19 09:02:46;;;;;;;21.80;17.23;;;13.00;99.90;;;;;;5059746;28;20582;-78
2021/04/19 09:05:32;;;;;;;21.43;15.47;;;13.10;99.90;;;;;;5063703;28;20262;-78
2021/04/19 09:08:18;;;;;;;24.43;17.07;;;13.10;99.90;;;;;;5065545;28;20279;-79
2021/04/19 09:11:06;;;;;;;20.67;15.17;;;13.10;99.90;;;;;;5063106;28;20211;-78
2021/04/19 09:14:03;;;;;;;22.83;16.97;;;13.10;99.90;;;;;;5064814;28;20217;-78
2021/04/19 09:16:56;;;;;;;19.63;15.93;;;13.20;99.90;;;;;;5073402;28;20725;-78
2021/04/19 09:19:43;;;;;;;23.27;16.93;;;13.20;99.90;;;;;;5066154;28;20274;-79
2021/04/19 09:22:28;;;;;;;21.00;16.47;;;13.20;99.90;;;;;;5060230;28;20196;-78
2021/04/19 09:25:14;;;;;;;19.07;15.67;;;13.40;99.90;;;;;;5073582;28;20666;-79
2021/04/19 09:27:59;;;;;;;20.90;17.17;;;13.40;99.90;;;;;;5063589;28;20238;-79
2021/04/19 09:30:45;;;;;;;21.23;16.30;;;13.50;99.90;;;;;;5082374;28;20597;-79
2021/04/19 09:33:30;;;;;;;22.00;17.00;;;13.50;99.90;;;;;;5075103;28;20234;-79
2021/04/19 09:36:35;;;;;;;21.90;17.43;;;13.60;99.90;;;;;;5068825;28;20245;-79
2021/04/19 09:39:45;;;;;;;21.03;16.10;;;13.60;99.90;;;;;;5083906;28;20227;-79
2021/04/19 09:43:04;;;;;;;23.37;17.43;;;13.80;99.90;;;;;;5068397;28;20296;-79
2021/04/19 09:45:57;;;;;;;22.10;17.90;;;13.90;99.90;;;;;;5068647;28;20207;-79
2021/04/19 09:48:45;;;;;;;20.30;16.03;;;14.00;99.90;;;;;;5077986;28;20773;-79
2021/04/19 09:51:37;;;;;;;19.97;16.80;;;14.10;99.90;;;;;;5069886;28;20211;-79
2021/04/19 09:54:23;;;;;;;19.67;16.63;;;14.30;99.90;;;;;;5084117;28;20232;-79
2021/04/19 09:57:10;;;;;;;19.07;16.00;;;14.40;99.90;;;;;;5074314;28;20222;-79
2021/04/19 09:59:56;;;;;;;17.73;15.30;;;14.60;99.90;;;;;;5068223;28;20258;-79
2021/04/19 10:02:42;;;;;;;16.97;14.57;;;14.80;99.90;;;;;;5066941;28;20214;-79
2021/04/19 10:05:27;;;;;;;17.80;14.30;;;15.10;99.90;;;;;;5078085;28;20255;-79
2021/04/19 10:08:13;;;;;;;17.93;14.77;;;15.30;99.90;;;;;;5083009;28;20234;-79
2021/04/19 10:10:59;;;;;;;18.37;14.70;;;15.60;99.90;;;;;;5062683;28;20206;-79
2021/04/19 10:13:44;;;;;;;18.57;15.40;;;15.90;99.90;;;;;;5071467;28;20634;-79
2021/04/19 10:16:39;;;;;;;16.17;14.00;;;16.20;99.90;;;;;;5078946;28;20218;-80
2021/04/19 10:19:26;;;;;;;19.07;14.20;;;16.60;99.90;;;;;;5075340;28;20238;-80
2021/04/19 10:22:13;;;;;;;15.37;13.20;;;17.30;99.90;;;;;;5075169;28;20284;-80
2021/04/19 10:25:01;;;;;;;14.93;13.33;;;18.00;99.90;;;;;;5068790;28;20207;-80
2021/04/19 10:27:48;;;;;;;15.53;12.47;;;18.90;99.90;;;;;;5072416;28;20223;-77
2021/04/19 10:30:32;;;;;;;13.23;10.77;;;19.80;99.90;;;;;;5074035;28;20240;-78
2021/04/19 10:33:25;;;;;;;12.17;10.87;;;20.60;99.90;;;;;;5060754;28;20293;-78
2021/04/19 10:36:16;;;;;;;11.93;10.37;;;21.40;99.90;;;;;;5066435;28;20222;-77
2021/04/19 10:39:11;;;;;;;12.20;10.27;;;22.00;99.90;;;;;;5073305;28;20277;-80
2021/04/19 10:41:58;;;;;;;11.07;9.87;;;22.50;99.90;;;;;;5073198;28;20272;-77
2021/04/19 10:44:44;;;;;;;11.20;10.03;;;22.80;99.90;;;;;;5070765;28;20229;-77
2021/04/19 10:47:32;;;;;;;11.03;9.53;;;22.90;99.90;;;;;;5080051;28;20650;-79
2021/04/19 10:50:30;;;;;;;14.50;10.80;;;22.90;98.80;;;;;;5075493;28;20206;-80
2021/04/19 10:53:32;;;;;;;12.80;10.03;;;22.90;98.70;;;;;;5069234;28;20207;-80
2021/04/19 10:56:24;;;;;;;12.87;10.67;;;23.10;99.90;;;;;;5067272;28;20213;-80
2021/04/19 10:59:11;;;;;;;11.67;10.47;;;23.40;98.20;;;;;;5051657;28;20792;-80
2021/04/19 11:02:01;;;;;;;10.13;9.03;;;23.90;95.10;;;;;;5073639;28;20205;-78
2021/04/19 11:04:47;;;;;;;10.27;9.27;;;24.40;93.80;;;;;;5069286;28;20323;-77
2021/04/19 11:07:35;;;;;;;10.47;9.37;;;24.80;91.00;;;;;;5078505;28;20196;-77
2021/04/19 11:10:33;;;;;;;12.10;10.03;;;24.90;90.20;;;;;;5072386;28;20293;-79
2021/04/19 11:13:25;;;;;;;10.67;9.43;;;24.80;89.20;;;;;;5064685;28;20312;-80
2021/04/19 11:16:10;;;;;;;12.57;10.30;;;24.60;89.20;;;;;;5063221;28;20210;-80
2021/04/19 11:18:54;;;;;;;10.33;9.00;;;24.40;88.70;;;;;;5083403;28;20311;-80
2021/04/19 11:21:39;;;;;;;10.60;9.50;;;24.10;89.70;;;;;;5083478;28;20207;-80
2021/04/19 11:24:36;;;;;;;10.17;9.07;;;24.00;87.90;;;;;;5073634;28;20199;-80
2021/04/19 11:27:26;;;;;;;11.23;10.13;;;23.90;90.00;;;;;;5090817;28;20696;-80
2021/04/19 11:30:25;;;;;;;9.90;8.90;;;23.80;89.90;;;;;;5089196;28;20244;-80
2021/04/19 11:33:11;;;;;;;10.40;7.83;;;23.90;88.10;;;;;;5084430;28;20331;-77
2021/04/19 11:36:01;;;;;;;10.10;8.50;;;24.00;86.20;;;;;;5082998;28;20302;-79
2021/04/19 11:38:46;;;;;;;9.27;8.27;;;24.00;84.60;;;;;;5073266;28;20286;-79
2021/04/19 11:41:37;;;;;;;9.00;8.10;;;24.00;83.30;;;;;;5071986;28;20612;-80
2021/04/19 11:44:46;;;;;;;11.17;8.87;;;23.70;84.40;;;;;;5062266;28;20219;-79
2021/04/19 11:47:32;;;;;;;9.70;8.67;;;23.40;85.50;;;;;;5068060;28;20198;-79
2021/04/19 11:50:17;;;;;;;9.93;8.43;;;23.10;83.40;;;;;;5073565;28;20682;-78
2021/04/19 11:53:02;;;;;;;10.00;8.70;;;22.80;84.10;;;;;;5072106;28;20287;-77
2021/04/19 11:55:48;;;;;;;9.70;8.63;;;22.40;85.80;;;;;;5069624;28;20221;-77
2021/04/19 11:58:35;;;;;;;9.50;8.50;;;22.10;87.10;;;;;;5089130;28;20239;-77
2021/04/19 12:01:21;;;;;;;11.03;9.47;;;21.80;89.10;;;;;;5088494;28;20225;-77
2021/04/19 12:04:06;;;;;;;11.33;9.93;;;21.50;87.90;;;;;;5086712;28;20190;-77
2021/04/19 12:06:51;;;;;;;11.27;9.83;;;21.30;89.60;;;;;;5093180;28;20228;-77
2021/04/19 12:09:35;;;;;;;10.53;9.43;;;21.10;88.90;;;;;;5081553;28;20280;-78
2021/04/19 12:12:20;;;;;;;11.87;10.23;;;21.10;86.30;;;;;;5058852;28;20204;-78
2021/04/19 12:15:06;;;;;;;10.60;9.50;;;20.90;88.00;;;;;;5060749;28;20695;-78
2021/04/19 12:17:51;;;;;;;11.67;10.00;;;20.60;88.40;;;;;;5057518;28;20314;-78
2021/04/19 12:20:37;;;;;;;11.60;9.57;;;20.40;88.70;;;;;;5074882;28;20336;-77
2021/04/19 12:23:21;;;;;;;12.53;11.23;;;20.20;90.70;;;;;;5067034;28;20203;-78
2021/04/19 12:26:07;;;;;;;11.33;9.37;;;20.10;89.80;;;;;;5060456;28;20200;-78
2021/04/19 12:28:51;;;;;;;11.37;9.80;;;20.00;89.80;;;;;;5064383;28;20729;-78
2021/04/19 12:31:38;;;;;;;10.93;9.83;;;20.00;91.10;;;;;;5058627;28;20206;-79
2021/04/19 12:34:22;;;;;;;11.17;9.87;;;20.10;90.10;;;;;;5069278;28;20207;-78
2021/04/19 12:37:07;;;;;;;11.37;10.10;;;20.30;89.00;;;;;;5062161;28;20266;-78
2021/04/19 12:39:52;;;;;;;13.03;9.80;;;20.70;88.50;;;;;;5057515;28;20224;-78
2021/04/19 12:42:38;;;;;;;11.43;10.23;;;21.00;88.50;;;;;;5066950;28;20213;-78
2021/04/19 12:45:24;;;;;;;11.90;10.70;;;21.00;89.10;;;;;;5059925;28;20717;-79
2021/04/19 12:48:10;;;;;;;11.60;9.53;;;21.00;88.80;;;;;;5079152;28;20577;-78
2021/04/19 12:50:55;;;;;;;11.73;9.43;;;21.20;92.90;;;;;;5076913;28;20268;-79
2021/04/19 12:53:40;;;;;;;11.77;10.37;;;20.90;92.90;;;;;;5071790;28;20308;-77
2021/04/19 12:56:26;;;;;;;11.87;10.03;;;20.60;93.70;;;;;;5068105;28;20637;-78
2021/04/19 12:59:10;;;;;;;12.37;10.80;;;20.30;95.00;;;;;;5059162;28;20666;-79
2021/04/19 13:01:55;;;;;;;12.33;10.60;;;19.90;96.30;;;;;;5070607;28;20337;-79
2021/04/19 13:04:41;;;;;;;14.80;12.23;;;19.60;97.40;;;;;;5087194;28;20210;-79
2021/04/19 13:07:25;;;;;;;14.70;11.57;;;19.20;98.30;;;;;;5085536;28;20209;-79
2021/04/19 13:10:10;;;;;;;14.57;12.23;;;18.90;99.80;;;;;;5079768;28;20261;-80
2021/04/19 13:12:55;;;;;;;14.00;12.20;;;18.60;99.90;;;;;;5079649;28;20718;-79
2021/04/19 13:15:40;;;;;;;16.20;13.27;;;18.30;99.90;;;;;;5076611;28;20753;-79
2021/04/19 13:18:25;;;;;;;13.97;12.47;;;18.00;99.90;;;;;;5078399;28;20775;-79
2021/04/19 13:21:11;;;;;;;14.73;12.57;;;17.70;99.90;;;;;;5081091;28;20313;-79
2021/04/19 13:23:56;;;;;;;14.30;12.30;;;17.30;99.90;;;;;;5071345;28;20205;-79
2021/04/19 13:26:41;;;;;;;14.83;12.53;;;17.00;99.90;;;;;;5069105;28;20627;-79
2021/04/19 13:29:26;;;;;;;17.93;13.47;;;16.60;99.90;;;;;;5084917;28;20238;-79
2021/04/19 13:32:11;;;;;;;16.30;12.83;;;16.30;99.90;;;;;;5074088;28;20216;-79
2021/04/19 13:34:55;;;;;;;13.80;11.73;;;16.00;99.90;;;;;;5079554;28;20269;-79
2021/04/19 13:37:41;;;;;;;14.10;11.80;;;15.80;99.90;;;;;;5080963;28;20375;-79
2021/04/19 13:40:26;;;;;;;14.57;11.17;;;15.60;99.90;;;;;;5074853;28;20574;-79
2021/04/19 13:43:11;;;;;;;15.30;12.27;;;15.40;99.90;;;;;;5065665;28;20220;-79
2021/04/19 13:45:55;;;;;;;16.33;11.93;;;15.20;99.90;;;;;;5072276;28;20913;-79
2021/04/19 13:48:40;;;;;;;16.67;12.73;;;15.10;99.90;;;;;;5075668;28;20268;-79
2021/04/19 13:51:24;;;;;;;13.23;10.10;;;15.00;99.90;;;;;;5075128;28;20608;-79
2021/04/19 13:54:10;;;;;;;14.80;11.87;;;14.90;99.90;;;;;;5075769;28;20733;-79
2021/04/19 13:56:55;;;;;;;14.57;11.90;;;14.80;99.90;;;;;;5066772;28;20225;-79
2021/04/19 13:59:40;;;;;;;15.53;12.17;;;14.70;99.90;;;;;;5072539;28;20251;-79
2021/04/19 14:02:25;;;;;;;17.77;13.17;;;14.60;99.90;;;;;;5061156;28;20209;-79
2021/04/19 14:05:10;;;;;;;16.37;13.83;;;14.50;99.90;;;;;;5063311;28;20213;-78
2021/04/19 14:07:56;;;;;;;18.27;14.80;;;14.40;99.90;;;;;;5067818;28;20271;-79
2021/04/19 14:10:41;;;;;;;18.67;14.40;;;14.40;99.90;;;;;;5060994;28;20213;-78
2021/04/19 14:13:26;;;;;;;20.13;17.33;;;14.30;99.90;;;;;;5063411;28;20221;-79
2021/04/19 14:16:10;;;;;;;23.00;19.13;;;14.30;99.90;;;;;;5062196;28;20288;-79
2021/04/19 14:18:55;;;;;;;24.17;19.77;;;14.30;99.90;;;;;;5062303;28;20254;-79